Terminal Aerodrome Forecast
Issued by NWS Northern Indiana

Home | Current Version | Previous Version | Graphics & Text | Print | Product List | Glossary On
Versions: 1 2 3 4 5 6 7 8 9 10 11 12 13
000
FTUS43 KIWX 222300
TAFFWA
TAF
KFWA 222320Z 2300/2324 27004KT P6SM OVC025
     FM230500 23004KT P6SM BKN025
     FM231600 23008KT P6SM SCT035=

USA.gov is the U.S. government's official web portal to all federal, state and local government web resources and services.